sensor_id;sensor_type;location;lat;lon;timestamp;temperature;humidity
36710;DHT22;22694;51.040;3.684;2022-12-17T00:00:47;12.80;53.10
36710;DHT22;22694;51.040;3.684;2022-12-17T00:03:32;12.80;53.00
36710;DHT22;22694;51.040;3.684;2022-12-17T00:06:17;12.90;52.80
36710;DHT22;22694;51.040;3.684;2022-12-17T00:09:02;12.90;52.60
36710;DHT22;22694;51.040;3.684;2022-12-17T00:11:46;12.90;52.80
36710;DHT22;22694;51.040;3.684;2022-12-17T00:14:30;12.80;52.80
36710;DHT22;22694;51.040;3.684;2022-12-17T00:17:14;12.70;52.90
36710;DHT22;22694;51.040;3.684;2022-12-17T00:19:58;12.70;53.10
36710;DHT22;22694;51.040;3.684;2022-12-17T00:22:42;12.70;53.10
36710;DHT22;22694;51.040;3.684;2022-12-17T00:25:26;12.70;53.00
36710;DHT22;22694;51.040;3.684;2022-12-17T00:28:13;12.70;52.70
36710;DHT22;22694;51.040;3.684;2022-12-17T00:30:58;12.80;52.60
36710;DHT22;22694;51.040;3.684;2022-12-17T00:33:42;12.90;52.80
36710;DHT22;22694;51.040;3.684;2022-12-17T00:36:26;12.90;52.90
36710;DHT22;22694;51.040;3.684;2022-12-17T00:39:11;12.80;52.80
36710;DHT22;22694;51.040;3.684;2022-12-17T00:41:55;12.70;52.80
36710;DHT22;22694;51.040;3.684;2022-12-17T00:44:39;12.70;52.80
36710;DHT22;22694;51.040;3.684;2022-12-17T00:47:23;12.60;52.90
36710;DHT22;22694;51.040;3.684;2022-12-17T00:50:07;12.70;52.80
36710;DHT22;22694;51.040;3.684;2022-12-17T00:52:52;12.70;52.70
36710;DHT22;22694;51.040;3.684;2022-12-17T00:55:37;12.70;52.60
36710;DHT22;22694;51.040;3.684;2022-12-17T00:58:22;12.80;52.60
36710;DHT22;22694;51.040;3.684;2022-12-17T01:01:06;12.80;53.10
36710;DHT22;22694;51.040;3.684;2022-12-17T01:03:50;12.80;52.70
36710;DHT22;22694;51.040;3.684;2022-12-17T01:06:34;12.70;52.80
36710;DHT22;22694;51.040;3.684;2022-12-17T01:09:18;12.70;52.80
36710;DHT22;22694;51.040;3.684;2022-12-17T01:12:02;12.60;52.80
36710;DHT22;22694;51.040;3.684;2022-12-17T01:14:47;12.60;52.80
36710;DHT22;22694;51.040;3.684;2022-12-17T01:17:38;12.60;52.60
36710;DHT22;22694;51.040;3.684;2022-12-17T01:20:23;12.70;52.70
36710;DHT22;22694;51.040;3.684;2022-12-17T01:23:07;12.80;52.50
36710;DHT22;22694;51.040;3.684;2022-12-17T01:25:55;12.80;52.40
36710;DHT22;22694;51.040;3.684;2022-12-17T01:28:40;12.80;52.40
36710;DHT22;22694;51.040;3.684;2022-12-17T01:31:25;12.70;52.50
36710;DHT22;22694;51.040;3.684;2022-12-17T01:34:09;12.60;52.50
36710;DHT22;22694;51.040;3.684;2022-12-17T01:36:53;12.50;52.40
36710;DHT22;22694;51.040;3.684;2022-12-17T01:39:39;12.60;52.50
36710;DHT22;22694;51.040;3.684;2022-12-17T01:42:23;12.60;52.50
36710;DHT22;22694;51.040;3.684;2022-12-17T01:45:13;12.60;52.40
36710;DHT22;22694;51.040;3.684;2022-12-17T01:48:02;12.70;52.20
36710;DHT22;22694;51.040;3.684;2022-12-17T01:50:52;12.80;52.20
36710;DHT22;22694;51.040;3.684;2022-12-17T01:53:42;12.70;52.30
36710;DHT22;22694;51.040;3.684;2022-12-17T01:56:27;12.70;52.40
36710;DHT22;22694;51.040;3.684;2022-12-17T01:59:12;12.60;52.40
36710;DHT22;22694;51.040;3.684;2022-12-17T02:01:57;12.60;52.40
36710;DHT22;22694;51.040;3.684;2022-12-17T02:04:41;12.50;52.40
36710;DHT22;22694;51.040;3.684;2022-12-17T02:07:34;12.50;52.20
36710;DHT22;22694;51.040;3.684;2022-12-17T02:10:38;12.60;52.30
36710;DHT22;22694;51.040;3.684;2022-12-17T02:13:31;12.70;52.20
36710;DHT22;22694;51.040;3.684;2022-12-17T02:16:19;12.70;52.00
36710;DHT22;22694;51.040;3.684;2022-12-17T02:25:16;12.50;52.30
36710;DHT22;22694;51.040;3.684;2022-12-17T02:28:03;12.40;52.30
36710;DHT22;22694;51.040;3.684;2022-12-17T02:30:47;12.50;52.30
36710;DHT22;22694;51.040;3.684;2022-12-17T02:33:32;12.50;52.40
36710;DHT22;22694;51.040;3.684;2022-12-17T02:36:16;12.60;52.30
36710;DHT22;22694;51.040;3.684;2022-12-17T02:39:00;12.70;52.10
36710;DHT22;22694;51.040;3.684;2022-12-17T02:41:53;12.70;52.00
36710;DHT22;22694;51.040;3.684;2022-12-17T02:44:39;12.70;52.20
36710;DHT22;22694;51.040;3.684;2022-12-17T02:47:25;12.60;52.30
36710;DHT22;22694;51.040;3.684;2022-12-17T02:50:10;12.50;52.20
36710;DHT22;22694;51.040;3.684;2022-12-17T02:52:54;12.40;52.20
36710;DHT22;22694;51.040;3.684;2022-12-17T02:55:41;12.40;52.20
36710;DHT22;22694;51.040;3.684;2022-12-17T02:58:25;12.40;52.10
36710;DHT22;22694;51.040;3.684;2022-12-17T03:01:09;12.50;52.10
36710;DHT22;22694;51.040;3.684;2022-12-17T03:03:53;12.60;52.00
36710;DHT22;22694;51.040;3.684;2022-12-17T03:06:37;12.60;51.90
36710;DHT22;22694;51.040;3.684;2022-12-17T03:09:21;12.60;51.90
36710;DHT22;22694;51.040;3.684;2022-12-17T03:12:13;12.50;52.10
36710;DHT22;22694;51.040;3.684;2022-12-17T03:14:57;12.40;52.30
36710;DHT22;22694;51.040;3.684;2022-12-17T03:17:41;12.40;52.40
36710;DHT22;22694;51.040;3.684;2022-12-17T03:20:25;12.40;52.30
36710;DHT22;22694;51.040;3.684;2022-12-17T03:23:10;12.40;52.10
36710;DHT22;22694;51.040;3.684;2022-12-17T03:25:59;12.50;52.00
36710;DHT22;22694;51.040;3.684;2022-12-17T03:28:43;12.50;51.80
36710;DHT22;22694;51.040;3.684;2022-12-17T03:31:27;12.60;51.80
36710;DHT22;22694;51.040;3.684;2022-12-17T03:34:11;12.60;51.80
36710;DHT22;22694;51.040;3.684;2022-12-17T03:36:55;12.50;52.00
36710;DHT22;22694;51.040;3.684;2022-12-17T03:39:39;12.40;52.00
36710;DHT22;22694;51.040;3.684;2022-12-17T03:42:23;12.40;52.10
36710;DHT22;22694;51.040;3.684;2022-12-17T03:45:07;12.40;52.20
36710;DHT22;22694;51.040;3.684;2022-12-17T03:48:12;12.40;52.10
36710;DHT22;22694;51.040;3.684;2022-12-17T03:50:56;12.40;52.50
36710;DHT22;22694;51.040;3.684;2022-12-17T03:53:41;12.50;51.80
36710;DHT22;22694;51.040;3.684;2022-12-17T03:56:26;12.50;51.70
36710;DHT22;22694;51.040;3.684;2022-12-17T03:59:11;12.50;51.70
36710;DHT22;22694;51.040;3.684;2022-12-17T04:01:55;12.50;51.70
36710;DHT22;22694;51.040;3.684;2022-12-17T04:04:39;12.40;51.80
36710;DHT22;22694;51.040;3.684;2022-12-17T04:07:23;12.40;51.90
36710;DHT22;22694;51.040;3.684;2022-12-17T04:10:08;12.30;52.60
36710;DHT22;22694;51.040;3.684;2022-12-17T04:12:52;12.30;52.50
36710;DHT22;22694;51.040;3.684;2022-12-17T04:15:38;12.40;52.40
36710;DHT22;22694;51.040;3.684;2022-12-17T04:18:23;12.50;52.20
36710;DHT22;22694;51.040;3.684;2022-12-17T04:21:07;12.60;52.00
36710;DHT22;22694;51.040;3.684;2022-12-17T04:23:51;12.60;52.10
36710;DHT22;22694;51.040;3.684;2022-12-17T04:26:35;12.50;52.30
36710;DHT22;22694;51.040;3.684;2022-12-17T04:29:19;12.40;52.30
36710;DHT22;22694;51.040;3.684;2022-12-17T04:32:03;12.30;52.40
36710;DHT22;22694;51.040;3.684;2022-12-17T04:34:47;12.20;52.40
36710;DHT22;22694;51.040;3.684;2022-12-17T04:37:31;12.20;52.30
36710;DHT22;22694;51.040;3.684;2022-12-17T04:40:15;12.30;52.20
36710;DHT22;22694;51.040;3.684;2022-12-17T04:43:11;12.30;52.00
36710;DHT22;22694;51.040;3.684;2022-12-17T04:45:55;12.40;51.90
36710;DHT22;22694;51.040;3.684;2022-12-17T04:48:39;12.40;52.00
36710;DHT22;22694;51.040;3.684;2022-12-17T04:51:24;12.30;52.30
36710;DHT22;22694;51.040;3.684;2022-12-17T04:54:08;12.20;52.20
36710;DHT22;22694;51.040;3.684;2022-12-17T04:56:52;12.20;52.40
36710;DHT22;22694;51.040;3.684;2022-12-17T04:59:36;12.10;52.30
36710;DHT22;22694;51.040;3.684;2022-12-17T05:02:20;12.20;52.30
36710;DHT22;22694;51.040;3.684;2022-12-17T05:05:05;12.20;52.20
36710;DHT22;22694;51.040;3.684;2022-12-17T05:07:55;12.30;52.00
36710;DHT22;22694;51.040;3.684;2022-12-17T05:10:40;12.30;51.90
36710;DHT22;22694;51.040;3.684;2022-12-17T05:13:24;12.30;51.90
36710;DHT22;22694;51.040;3.684;2022-12-17T05:16:09;12.30;52.10
36710;DHT22;22694;51.040;3.684;2022-12-17T05:18:53;12.20;52.10
36710;DHT22;22694;51.040;3.684;2022-12-17T05:21:37;12.10;52.20
36710;DHT22;22694;51.040;3.684;2022-12-17T05:24:21;12.10;52.30
36710;DHT22;22694;51.040;3.684;2022-12-17T05:27:05;12.10;52.30
36710;DHT22;22694;51.040;3.684;2022-12-17T05:29:49;12.10;52.10
36710;DHT22;22694;51.040;3.684;2022-12-17T05:32:33;12.20;51.90
36710;DHT22;22694;51.040;3.684;2022-12-17T05:35:17;12.20;51.80
36710;DHT22;22694;51.040;3.684;2022-12-17T05:38:06;12.20;52.20
36710;DHT22;22694;51.040;3.684;2022-12-17T05:40:50;12.30;52.40
36710;DHT22;22694;51.040;3.684;2022-12-17T05:43:35;12.20;52.40
36710;DHT22;22694;51.040;3.684;2022-12-17T05:46:19;12.10;52.30
36710;DHT22;22694;51.040;3.684;2022-12-17T05:49:03;12.00;52.30
36710;DHT22;22694;51.040;3.684;2022-12-17T05:51:47;12.00;52.30
36710;DHT22;22694;51.040;3.684;2022-12-17T05:54:32;12.10;52.20
36710;DHT22;22694;51.040;3.684;2022-12-17T05:57:15;12.10;52.10
36710;DHT22;22694;51.040;3.684;2022-12-17T05:59:59;12.20;52.00
36710;DHT22;22694;51.040;3.684;2022-12-17T06:02:43;12.20;51.80
36710;DHT22;22694;51.040;3.684;2022-12-17T06:05:28;12.20;51.90
36710;DHT22;22694;51.040;3.684;2022-12-17T06:08:12;12.10;52.00
36710;DHT22;22694;51.040;3.684;2022-12-17T06:10:58;12.00;52.00
36710;DHT22;22694;51.040;3.684;2022-12-17T06:13:43;12.00;52.60
36710;DHT22;22694;51.040;3.684;2022-12-17T06:16:28;12.00;52.00
36710;DHT22;22694;51.040;3.684;2022-12-17T06:19:12;12.10;51.90
36710;DHT22;22694;51.040;3.684;2022-12-17T06:21:56;12.20;51.90
36710;DHT22;22694;51.040;3.684;2022-12-17T06:24:40;12.30;51.80
36710;DHT22;22694;51.040;3.684;2022-12-17T06:27:24;12.20;51.70
36710;DHT22;22694;51.040;3.684;2022-12-17T06:30:08;12.20;51.80
36710;DHT22;22694;51.040;3.684;2022-12-17T06:33:10;12.10;51.80
36710;DHT22;22694;51.040;3.684;2022-12-17T06:35:56;12.00;52.00
36710;DHT22;22694;51.040;3.684;2022-12-17T06:38:41;12.00;52.00
36710;DHT22;22694;51.040;3.684;2022-12-17T06:41:25;12.00;51.90
36710;DHT22;22694;51.040;3.684;2022-12-17T06:44:09;12.10;51.70
36710;DHT22;22694;51.040;3.684;2022-12-17T06:46:53;12.20;51.50
36710;DHT22;22694;51.040;3.684;2022-12-17T06:49:37;12.20;51.40
36710;DHT22;22694;51.040;3.684;2022-12-17T06:52:21;12.20;52.00
36710;DHT22;22694;51.040;3.684;2022-12-17T06:55:06;12.20;51.60
36710;DHT22;22694;51.040;3.684;2022-12-17T06:58:00;12.10;51.70
36710;DHT22;22694;51.040;3.684;2022-12-17T07:00:45;12.00;51.80
36710;DHT22;22694;51.040;3.684;2022-12-17T07:03:29;12.00;51.70
36710;DHT22;22694;51.040;3.684;2022-12-17T07:06:13;12.00;51.60
36710;DHT22;22694;51.040;3.684;2022-12-17T07:08:57;12.00;51.40
36710;DHT22;22694;51.040;3.684;2022-12-17T07:11:41;12.10;51.30
36710;DHT22;22694;51.040;3.684;2022-12-17T07:14:26;12.20;51.70
36710;DHT22;22694;51.040;3.684;2022-12-17T07:17:10;12.20;51.10
36710;DHT22;22694;51.040;3.684;2022-12-17T07:19:54;12.20;51.30
36710;DHT22;22694;51.040;3.684;2022-12-17T07:22:38;12.10;51.50
36710;DHT22;22694;51.040;3.684;2022-12-17T07:25:22;12.00;51.70
36710;DHT22;22694;51.040;3.684;2022-12-17T07:28:06;12.00;51.80
36710;DHT22;22694;51.040;3.684;2022-12-17T07:30:50;12.00;51.80
36710;DHT22;22694;51.040;3.684;2022-12-17T07:33:34;12.00;51.60
36710;DHT22;22694;51.040;3.684;2022-12-17T07:36:19;12.10;51.50
36710;DHT22;22694;51.040;3.684;2022-12-17T07:39:03;12.20;51.30
36710;DHT22;22694;51.040;3.684;2022-12-17T07:41:47;12.20;51.20
36710;DHT22;22694;51.040;3.684;2022-12-17T07:44:31;12.20;51.40
36710;DHT22;22694;51.040;3.684;2022-12-17T07:47:15;12.10;51.50
36710;DHT22;22694;51.040;3.684;2022-12-17T07:49:59;12.00;51.50
36710;DHT22;22694;51.040;3.684;2022-12-17T07:52:43;12.00;51.70
36710;DHT22;22694;51.040;3.684;2022-12-17T07:55:28;12.00;51.70
36710;DHT22;22694;51.040;3.684;2022-12-17T07:58:12;12.00;51.50
36710;DHT22;22694;51.040;3.684;2022-12-17T08:00:59;12.10;51.50
36710;DHT22;22694;51.040;3.684;2022-12-17T08:03:44;12.20;51.30
36710;DHT22;22694;51.040;3.684;2022-12-17T08:06:28;12.20;51.20
36710;DHT22;22694;51.040;3.684;2022-12-17T08:09:13;12.20;51.30
36710;DHT22;22694;51.040;3.684;2022-12-17T08:11:57;12.20;51.40
36710;DHT22;22694;51.040;3.684;2022-12-17T08:14:41;12.10;51.50
36710;DHT22;22694;51.040;3.684;2022-12-17T08:17:25;12.00;51.60
36710;DHT22;22694;51.040;3.684;2022-12-17T08:20:09;12.00;51.70
36710;DHT22;22694;51.040;3.684;2022-12-17T08:23:02;12.00;51.70
36710;DHT22;22694;51.040;3.684;2022-12-17T08:25:46;12.10;51.50
36710;DHT22;22694;51.040;3.684;2022-12-17T08:28:31;12.10;51.40
36710;DHT22;22694;51.040;3.684;2022-12-17T08:31:15;12.20;51.30
36710;DHT22;22694;51.040;3.684;2022-12-17T08:33:59;12.20;51.20
36710;DHT22;22694;51.040;3.684;2022-12-17T08:36:43;12.20;51.40
36710;DHT22;22694;51.040;3.684;2022-12-17T08:39:27;12.20;58.00
36710;DHT22;22694;51.040;3.684;2022-12-17T08:42:11;12.80;73.60
36710;DHT22;22694;51.040;3.684;2022-12-17T08:44:55;13.20;67.70
36710;DHT22;22694;51.040;3.684;2022-12-17T08:47:39;13.20;55.60
36710;DHT22;22694;51.040;3.684;2022-12-17T08:50:23;13.20;54.50
36710;DHT22;22694;51.040;3.684;2022-12-17T08:53:07;13.20;53.20
36710;DHT22;22694;51.040;3.684;2022-12-17T08:55:51;13.10;52.00
36710;DHT22;22694;51.040;3.684;2022-12-17T08:58:35;13.00;51.30
36710;DHT22;22694;51.040;3.684;2022-12-17T09:01:19;12.90;50.80
36710;DHT22;22694;51.040;3.684;2022-12-17T09:04:04;12.80;50.80
36710;DHT22;22694;51.040;3.684;2022-12-17T09:06:48;12.70;50.80
36710;DHT22;22694;51.040;3.684;2022-12-17T09:09:32;12.70;50.90
36710;DHT22;22694;51.040;3.684;2022-12-17T09:12:16;12.60;50.90
36710;DHT22;22694;51.040;3.684;2022-12-17T09:15:00;12.60;50.70
36710;DHT22;22694;51.040;3.684;2022-12-17T09:17:44;12.70;50.80
36710;DHT22;22694;51.040;3.684;2022-12-17T09:20:28;12.70;50.60
36710;DHT22;22694;51.040;3.684;2022-12-17T09:23:16;12.70;50.30
36710;DHT22;22694;51.040;3.684;2022-12-17T09:26:00;12.70;50.60
36710;DHT22;22694;51.040;3.684;2022-12-17T09:28:44;12.60;51.80
36710;DHT22;22694;51.040;3.684;2022-12-17T09:31:30;12.50;50.90
36710;DHT22;22694;51.040;3.684;2022-12-17T09:34:14;12.50;50.50
36710;DHT22;22694;51.040;3.684;2022-12-17T09:36:58;12.50;50.50
36710;DHT22;22694;51.040;3.684;2022-12-17T09:39:42;12.50;50.50
36710;DHT22;22694;51.040;3.684;2022-12-17T09:42:37;12.60;50.70
36710;DHT22;22694;51.040;3.684;2022-12-17T09:45:34;12.60;50.60
36710;DHT22;22694;51.040;3.684;2022-12-17T09:48:31;12.60;51.00
36710;DHT22;22694;51.040;3.684;2022-12-17T09:51:26;12.60;52.30
36710;DHT22;22694;51.040;3.684;2022-12-17T09:54:33;12.50;52.20
36710;DHT22;22694;51.040;3.684;2022-12-17T09:57:27;12.50;50.90
36710;DHT22;22694;51.040;3.684;2022-12-17T10:00:22;12.50;50.80
36710;DHT22;22694;51.040;3.684;2022-12-17T10:03:18;12.50;50.90
36710;DHT22;22694;51.040;3.684;2022-12-17T10:06:16;12.60;51.20
36710;DHT22;22694;51.040;3.684;2022-12-17T10:09:08;12.60;51.00
36710;DHT22;22694;51.040;3.684;2022-12-17T10:11:52;12.60;51.10
36710;DHT22;22694;51.040;3.684;2022-12-17T10:14:37;12.60;52.20
36710;DHT22;22694;51.040;3.684;2022-12-17T10:17:22;12.60;53.00
36710;DHT22;22694;51.040;3.684;2022-12-17T10:20:40;12.50;52.30
36710;DHT22;22694;51.040;3.684;2022-12-17T10:23:27;12.50;51.30
36710;DHT22;22694;51.040;3.684;2022-12-17T10:26:31;12.60;51.30
36710;DHT22;22694;51.040;3.684;2022-12-17T10:32:28;12.70;51.80
36710;DHT22;22694;51.040;3.684;2022-12-17T10:35:19;12.70;51.40
36710;DHT22;22694;51.040;3.684;2022-12-17T10:38:24;12.70;52.70
36710;DHT22;22694;51.040;3.684;2022-12-17T10:41:24;12.60;53.70
36710;DHT22;22694;51.040;3.684;2022-12-17T10:44:19;12.90;64.60
36710;DHT22;22694;51.040;3.684;2022-12-17T10:47:04;13.10;58.80
36710;DHT22;22694;51.040;3.684;2022-12-17T10:50:00;13.40;64.50
36710;DHT22;22694;51.040;3.684;2022-12-17T10:52:46;13.40;54.40
36710;DHT22;22694;51.040;3.684;2022-12-17T10:55:32;13.30;54.20
36710;DHT22;22694;51.040;3.684;2022-12-17T10:58:28;13.10;53.80
36710;DHT22;22694;51.040;3.684;2022-12-17T11:01:20;12.90;53.70
36710;DHT22;22694;51.040;3.684;2022-12-17T11:07:30;12.60;53.80
36710;DHT22;22694;51.040;3.684;2022-12-17T11:10:18;12.40;54.00
36710;DHT22;22694;51.040;3.684;2022-12-17T11:13:35;12.40;54.00
36710;DHT22;22694;51.040;3.684;2022-12-17T11:16:31;12.40;53.80
36710;DHT22;22694;51.040;3.684;2022-12-17T11:22:24;12.50;53.60
36710;DHT22;22694;51.040;3.684;2022-12-17T11:28:23;12.40;53.80
36710;DHT22;22694;51.040;3.684;2022-12-17T11:35:05;12.20;54.00
36710;DHT22;22694;51.040;3.684;2022-12-17T11:40:55;12.30;54.00
36710;DHT22;22694;51.040;3.684;2022-12-17T11:43:48;12.40;53.80
36710;DHT22;22694;51.040;3.684;2022-12-17T11:47:10;12.40;53.70
36710;DHT22;22694;51.040;3.684;2022-12-17T11:50:31;12.40;53.70
36710;DHT22;22694;51.040;3.684;2022-12-17T11:56:44;12.30;54.00
36710;DHT22;22694;51.040;3.684;2022-12-17T11:59:53;12.20;54.10
36710;DHT22;22694;51.040;3.684;2022-12-17T12:05:51;12.40;54.00
36710;DHT22;22694;51.040;3.684;2022-12-17T12:11:55;12.50;53.80
36710;DHT22;22694;51.040;3.684;2022-12-17T12:21:00;12.30;54.10
36710;DHT22;22694;51.040;3.684;2022-12-17T12:29:51;12.40;54.10
36710;DHT22;22694;51.040;3.684;2022-12-17T12:36:10;12.50;54.00
36710;DHT22;22694;51.040;3.684;2022-12-17T12:38:56;12.50;54.00
36710;DHT22;22694;51.040;3.684;2022-12-17T12:44:39;12.40;54.30
36710;DHT22;22694;51.040;3.684;2022-12-17T12:53:56;12.50;54.30
36710;DHT22;22694;51.040;3.684;2022-12-17T12:56:40;12.60;54.10
36710;DHT22;22694;51.040;3.684;2022-12-17T12:59:27;12.60;54.00
36710;DHT22;22694;51.040;3.684;2022-12-17T13:02:30;12.60;54.00
36710;DHT22;22694;51.040;3.684;2022-12-17T13:10:35;12.50;54.40
36710;DHT22;22694;51.040;3.684;2022-12-17T13:15:47;12.60;54.30
36710;DHT22;22694;51.040;3.684;2022-12-17T13:21:03;12.80;54.10
36710;DHT22;22694;51.040;3.684;2022-12-17T13:23:35;12.70;54.00
36710;DHT22;22694;51.040;3.684;2022-12-17T13:26:22;12.70;54.00
36710;DHT22;22694;51.040;3.684;2022-12-17T13:29:02;12.70;54.00
36710;DHT22;22694;51.040;3.684;2022-12-17T13:31:38;12.60;54.40
36710;DHT22;22694;51.040;3.684;2022-12-17T13:34:18;12.60;54.30
36710;DHT22;22694;51.040;3.684;2022-12-17T13:39:54;12.70;54.40
36710;DHT22;22694;51.040;3.684;2022-12-17T13:42:28;12.70;54.30
36710;DHT22;22694;51.040;3.684;2022-12-17T13:44:55;12.80;54.20
36710;DHT22;22694;51.040;3.684;2022-12-17T13:47:27;12.90;54.10
36710;DHT22;22694;51.040;3.684;2022-12-17T13:49:55;12.90;57.20
36710;DHT22;22694;51.040;3.684;2022-12-17T13:52:24;12.90;55.20
36710;DHT22;22694;51.040;3.684;2022-12-17T13:54:51;12.90;55.40
36710;DHT22;22694;51.040;3.684;2022-12-17T13:57:23;12.80;55.30
36710;DHT22;22694;51.040;3.684;2022-12-17T13:59:54;12.90;55.40
36710;DHT22;22694;51.040;3.684;2022-12-17T14:02:29;12.90;55.30
36710;DHT22;22694;51.040;3.684;2022-12-17T14:04:56;13.00;55.30
36710;DHT22;22694;51.040;3.684;2022-12-17T14:07:24;13.10;55.10
36710;DHT22;22694;51.040;3.684;2022-12-17T14:09:50;13.20;55.10
36710;DHT22;22694;51.040;3.684;2022-12-17T14:12:20;13.20;55.10
36710;DHT22;22694;51.040;3.684;2022-12-17T14:15:04;13.20;55.10
36710;DHT22;22694;51.040;3.684;2022-12-17T14:17:40;13.20;55.20
36710;DHT22;22694;51.040;3.684;2022-12-17T14:20:09;13.10;55.30
36710;DHT22;22694;51.040;3.684;2022-12-17T14:22:41;13.10;55.40
36710;DHT22;22694;51.040;3.684;2022-12-17T14:25:22;13.10;55.40
36710;DHT22;22694;51.040;3.684;2022-12-17T14:28:03;13.20;55.40
36710;DHT22;22694;51.040;3.684;2022-12-17T14:33:02;13.30;55.10
36710;DHT22;22694;51.040;3.684;2022-12-17T14:35:30;13.30;55.00
36710;DHT22;22694;51.040;3.684;2022-12-17T14:37:58;13.40;55.20
36710;DHT22;22694;51.040;3.684;2022-12-17T14:40:24;13.30;55.20
36710;DHT22;22694;51.040;3.684;2022-12-17T14:42:52;13.20;55.20
36710;DHT22;22694;51.040;3.684;2022-12-17T14:45:24;13.20;55.30
36710;DHT22;22694;51.040;3.684;2022-12-17T14:47:59;13.20;55.30
36710;DHT22;22694;51.040;3.684;2022-12-17T14:50:32;13.20;55.30
36710;DHT22;22694;51.040;3.684;2022-12-17T14:53:00;13.30;55.20
36710;DHT22;22694;51.040;3.684;2022-12-17T14:55:38;13.30;55.10
36710;DHT22;22694;51.040;3.684;2022-12-17T14:58:17;13.40;55.10
36710;DHT22;22694;51.040;3.684;2022-12-17T15:00:49;13.30;55.30
36710;DHT22;22694;51.040;3.684;2022-12-17T15:03:22;13.30;55.40
36710;DHT22;22694;51.040;3.684;2022-12-17T15:06:12;13.30;55.40
36710;DHT22;22694;51.040;3.684;2022-12-17T15:08:41;13.20;55.40
36710;DHT22;22694;51.040;3.684;2022-12-17T15:11:09;13.20;55.10
36710;DHT22;22694;51.040;3.684;2022-12-17T15:13:36;13.20;55.00
36710;DHT22;22694;51.040;3.684;2022-12-17T15:16:02;13.30;54.80
36710;DHT22;22694;51.040;3.684;2022-12-17T15:18:27;13.30;54.60
36710;DHT22;22694;51.040;3.684;2022-12-17T15:20:53;13.40;54.50
36710;DHT22;22694;51.040;3.684;2022-12-17T15:23:20;13.50;54.20
36710;DHT22;22694;51.040;3.684;2022-12-17T15:25:47;13.60;54.00
36710;DHT22;22694;51.040;3.684;2022-12-17T15:28:14;13.70;53.80
36710;DHT22;22694;51.040;3.684;2022-12-17T15:30:39;13.70;53.50
36710;DHT22;22694;51.040;3.684;2022-12-17T15:33:06;13.80;53.30
36710;DHT22;22694;51.040;3.684;2022-12-17T15:35:33;13.80;53.20
36710;DHT22;22694;51.040;3.684;2022-12-17T15:37:58;13.70;53.20
36710;DHT22;22694;51.040;3.684;2022-12-17T15:40:24;13.60;53.10
36710;DHT22;22694;51.040;3.684;2022-12-17T15:42:50;13.60;53.10
36710;DHT22;22694;51.040;3.684;2022-12-17T15:45:34;13.60;53.10
36710;DHT22;22694;51.040;3.684;2022-12-17T15:48:00;13.60;53.10
36710;DHT22;22694;51.040;3.684;2022-12-17T15:50:26;13.70;53.00
36710;DHT22;22694;51.040;3.684;2022-12-17T15:52:52;13.80;53.10
36710;DHT22;22694;51.040;3.684;2022-12-17T15:55:18;13.80;52.90
36710;DHT22;22694;51.040;3.684;2022-12-17T15:57:44;13.90;52.90
36710;DHT22;22694;51.040;3.684;2022-12-17T16:00:10;13.90;52.60
36710;DHT22;22694;51.040;3.684;2022-12-17T16:02:35;13.80;52.50
36710;DHT22;22694;51.040;3.684;2022-12-17T16:05:01;13.80;52.50
36710;DHT22;22694;51.040;3.684;2022-12-17T16:07:27;13.70;52.50
36710;DHT22;22694;51.040;3.684;2022-12-17T16:09:52;13.70;52.50
36710;DHT22;22694;51.040;3.684;2022-12-17T16:12:18;13.70;52.50
36710;DHT22;22694;51.040;3.684;2022-12-17T16:14:44;13.70;52.40
36710;DHT22;22694;51.040;3.684;2022-12-17T16:17:09;13.70;52.30
36710;DHT22;22694;51.040;3.684;2022-12-17T16:19:35;13.80;52.20
36710;DHT22;22694;51.040;3.684;2022-12-17T16:22:01;13.90;52.10
36710;DHT22;22694;51.040;3.684;2022-12-17T16:24:27;13.90;51.90
36710;DHT22;22694;51.040;3.684;2022-12-17T16:26:53;13.90;52.40
36710;DHT22;22694;51.040;3.684;2022-12-17T16:29:18;13.80;51.80
36710;DHT22;22694;51.040;3.684;2022-12-17T16:31:44;13.80;51.90
36710;DHT22;22694;51.040;3.684;2022-12-17T16:34:11;13.70;51.90
36710;DHT22;22694;51.040;3.684;2022-12-17T16:36:37;13.70;52.00
36710;DHT22;22694;51.040;3.684;2022-12-17T16:39:04;13.70;52.00
36710;DHT22;22694;51.040;3.684;2022-12-17T16:41:30;13.70;51.90
36710;DHT22;22694;51.040;3.684;2022-12-17T16:43:56;13.70;51.80
36710;DHT22;22694;51.040;3.684;2022-12-17T16:49:03;13.90;51.70
36710;DHT22;22694;51.040;3.684;2022-12-17T16:51:28;13.90;51.50
36710;DHT22;22694;51.040;3.684;2022-12-17T16:53:55;13.90;51.50
36710;DHT22;22694;51.040;3.684;2022-12-17T16:56:23;13.80;51.50
36710;DHT22;22694;51.040;3.684;2022-12-17T16:58:49;13.70;51.50
36710;DHT22;22694;51.040;3.684;2022-12-17T17:01:23;13.70;51.50
36710;DHT22;22694;51.040;3.684;2022-12-17T17:03:49;13.60;51.60
36710;DHT22;22694;51.040;3.684;2022-12-17T17:06:16;13.60;51.60
36710;DHT22;22694;51.040;3.684;2022-12-17T17:08:42;13.60;52.10
36710;DHT22;22694;51.040;3.684;2022-12-17T17:11:17;13.70;51.50
36710;DHT22;22694;51.040;3.684;2022-12-17T17:13:46;13.80;51.50
36710;DHT22;22694;51.040;3.684;2022-12-17T17:16:13;13.80;51.30
36710;DHT22;22694;51.040;3.684;2022-12-17T17:18:39;13.90;51.20
36710;DHT22;22694;51.040;3.684;2022-12-17T17:23:59;13.80;51.20
36710;DHT22;22694;51.040;3.684;2022-12-17T17:26:30;13.70;51.30
36710;DHT22;22694;51.040;3.684;2022-12-17T17:28:57;13.60;51.30
36710;DHT22;22694;51.040;3.684;2022-12-17T17:31:23;13.60;51.40
36710;DHT22;22694;51.040;3.684;2022-12-17T17:33:50;13.70;51.40
36710;DHT22;22694;51.040;3.684;2022-12-17T17:36:27;13.70;51.30
36710;DHT22;22694;51.040;3.684;2022-12-17T17:38:55;13.70;51.30
36710;DHT22;22694;51.040;3.684;2022-12-17T17:41:23;13.80;51.20
36710;DHT22;22694;51.040;3.684;2022-12-17T17:43:53;13.80;51.00
36710;DHT22;22694;51.040;3.684;2022-12-17T17:46:20;13.90;50.90
36710;DHT22;22694;51.040;3.684;2022-12-17T17:48:47;13.80;50.80
36710;DHT22;22694;51.040;3.684;2022-12-17T17:51:19;13.80;51.00
36710;DHT22;22694;51.040;3.684;2022-12-17T17:53:46;13.70;50.90
36710;DHT22;22694;51.040;3.684;2022-12-17T17:56:15;13.70;51.00
36710;DHT22;22694;51.040;3.684;2022-12-17T17:58:42;13.60;51.00
36710;DHT22;22694;51.040;3.684;2022-12-17T18:01:13;13.60;51.00
36710;DHT22;22694;51.040;3.684;2022-12-17T18:03:40;13.60;50.90
36710;DHT22;22694;51.040;3.684;2022-12-17T18:06:07;13.70;50.90
36710;DHT22;22694;51.040;3.684;2022-12-17T18:08:34;13.80;50.90
36710;DHT22;22694;51.040;3.684;2022-12-17T18:11:02;13.80;50.70
36710;DHT22;22694;51.040;3.684;2022-12-17T18:13:28;13.90;50.60
36710;DHT22;22694;51.040;3.684;2022-12-17T18:16:13;13.90;50.50
36710;DHT22;22694;51.040;3.684;2022-12-17T18:18:39;13.90;50.40
36710;DHT22;22694;51.040;3.684;2022-12-17T18:21:10;13.80;50.40